Time;durP1;ratioP1;P1;durP2;ratioP2;P2;SDS_P1;SDS_P2;PMS_P1;PMS_P2;Temp;Humidity;BMP_temperature;BMP_pressure;BME280_temperature;BME280_humidity;BME280_pressure;Samples;Min_cycle;Max_cycle;Signal;HPM_P1;HPM_P2
2023/01/17 00:02:13;;;;;;;11.30;4.20;;;;;;;3.50;86.81;95863.81;105361;1256;97912;-66
2023/01/17 00:10:17;;;;;;;74.30;38.70;;;;;;;3.36;87.06;95861.05;105294;1254;98227;-66
2023/01/17 00:13:00;;;;;;;38.00;13.90;;;;;;;3.34;87.38;95855.79;105263;1257;112184;-66
2023/01/17 00:15:29;;;;;;;68.40;18.10;;;;;;;3.32;87.64;95854.46;105353;1254;100759;-66
2023/01/17 00:17:57;;;;;;;17.70;6.10;;;;;;;3.30;87.57;95852.80;105283;1256;109501;-66
2023/01/17 00:26:25;;;;;;;53.50;17.70;;;;;;;3.27;87.86;95839.02;105356;1256;112154;-66
2023/01/17 01:33:47;;;;;;;11.00;6.70;;;;;;;2.50;88.22;95891.89;105217;1264;112473;-67
2023/01/17 01:36:14;;;;;;;38.80;14.60;;;;;;;2.50;88.32;95894.08;105311;1257;99096;-67
2023/01/17 01:38:41;;;;;;;25.00;9.10;;;;;;;2.49;88.51;95893.88;104963;1256;99298;-67
2023/01/17 01:41:08;;;;;;;16.20;8.00;;;;;;;2.47;88.40;95895.41;105064;1257;97895;-67
2023/01/17 01:43:42;;;;;;;13.90;7.70;;;;;;;2.44;87.85;95897.46;105225;1258;97947;-67
2023/01/17 01:46:35;;;;;;;16.30;8.60;;;;;;;2.39;88.08;95892.36;105207;1257;111107;-67
2023/01/17 01:49:10;;;;;;;12.20;7.10;;;;;;;2.32;87.80;95895.52;105290;1260;97980;-67
2023/01/17 01:51:42;;;;;;;11.10;6.20;;;;;;;2.22;88.06;95888.42;105294;1257;108571;-66
2023/01/17 01:54:32;;;;;;;13.10;6.70;;;;;;;2.13;88.24;95894.16;105274;1256;99309;-66
2023/01/17 01:57:04;;;;;;;11.30;7.00;;;;;;;2.04;88.40;95893.73;105319;1254;99061;-67
2023/01/17 01:59:33;;;;;;;9.00;5.80;;;;;;;1.97;87.88;95901.98;105276;1254;111828;-66
2023/01/17 02:02:01;;;;;;;11.20;6.60;;;;;;;1.89;87.93;95900.97;105305;1254;97886;-66
2023/01/17 02:04:28;;;;;;;13.40;7.70;;;;;;;1.80;88.08;95904.75;105311;1257;107640;-66
2023/01/17 02:07:11;;;;;;;12.00;6.70;;;;;;;1.72;87.98;95900.08;105250;1254;97898;-67
2023/01/17 02:09:39;;;;;;;11.60;6.10;;;;;;;1.68;88.22;95903.05;105119;1256;99225;-66
2023/01/17 02:12:08;;;;;;;9.30;4.50;;;;;;;1.66;88.28;95895.95;105286;1257;111280;-67
2023/01/17 02:14:36;;;;;;;11.10;5.20;;;;;;;1.65;88.10;95890.20;105087;1255;97909;-70
2023/01/17 02:17:14;;;;;;;9.00;4.20;;;;;;;1.65;87.73;95894.77;105283;1257;97943;-69
2023/01/17 02:20:00;;;;;;;11.30;6.40;;;;;;;1.63;87.71;95885.98;105265;1257;97905;-67
2023/01/17 02:23:03;;;;;;;11.10;5.30;;;;;;;1.60;87.51;95890.14;105288;1257;98453;-67
2023/01/17 02:25:39;;;;;;;11.50;6.00;;;;;;;1.59;87.47;95887.83;105291;1256;111567;-66
2023/01/17 02:28:25;;;;;;;8.60;5.30;;;;;;;1.57;87.33;95878.97;105290;1257;98954;-66
2023/01/17 02:31:03;;;;;;;7.80;4.50;;;;;;;1.54;87.81;95874.81;105266;1257;108368;-67
2023/01/17 02:33:52;;;;;;;11.80;5.70;;;;;;;1.53;87.45;95878.70;105297;1256;99210;-66
2023/01/17 02:36:25;;;;;;;8.80;4.10;;;;;;;1.52;87.35;95873.90;105321;1256;98405;-66
2023/01/17 02:39:04;;;;;;;6.60;3.60;;;;;;;1.52;87.37;95870.88;105268;1266;112459;-66
2023/01/17 02:41:44;;;;;;;7.70;4.60;;;;;;;1.49;87.17;95859.49;105338;1257;99161;-66
2023/01/17 02:44:17;;;;;;;8.80;5.10;;;;;;;1.46;87.20;95858.77;105262;1256;107280;-66
2023/01/17 02:47:26;;;;;;;5.20;3.00;;;;;;;1.40;87.27;95857.08;105292;1256;99101;-66
2023/01/17 02:50:00;;;;;;;4.60;2.50;;;;;;;1.33;87.34;95859.00;105331;1253;97901;-66
2023/01/17 02:52:48;;;;;;;7.20;4.20;;;;;;;1.28;87.76;95863.73;105337;1257;110995;-66
2023/01/17 02:55:40;;;;;;;5.50;3.60;;;;;;;1.22;87.63;95865.67;105286;1257;98795;-66
2023/01/17 02:58:23;;;;;;;6.10;3.80;;;;;;;1.18;87.59;95862.33;105279;1257;108664;-66
2023/01/17 03:01:06;;;;;;;7.10;3.90;;;;;;;1.14;87.58;95865.82;105249;1257;97891;-66
2023/01/17 03:04:08;;;;;;;6.00;3.20;;;;;;;1.13;87.75;95865.38;105329;1257;98289;-66
2023/01/17 03:06:43;;;;;;;7.00;3.60;;;;;;;1.12;87.70;95865.95;104568;1264;113473;-65
2023/01/17 03:09:13;;;;;;;5.90;3.30;;;;;;;1.12;87.71;95862.08;104618;1265;99063;-65
2023/01/17 03:11:41;;;;;;;7.10;3.50;;;;;;;1.12;87.80;95861.25;104644;1264;108990;-66
2023/01/17 03:14:08;;;;;;;6.70;3.50;;;;;;;1.11;87.62;95862.21;104561;1264;99207;-66
2023/01/17 03:16:35;;;;;;;7.10;3.70;;;;;;;1.11;87.70;95860.60;104633;1265;97963;-66
2023/01/17 03:19:03;;;;;;;7.50;4.10;;;;;;;1.11;87.64;95866.69;104576;1264;98127;-65
2023/01/17 03:21:30;;;;;;;5.80;3.60;;;;;;;1.12;87.82;95871.81;104605;1265;98084;-65
2023/01/17 03:23:57;;;;;;;6.70;3.90;;;;;;;1.12;87.64;95877.83;104562;1265;98112;-67
2023/01/17 03:26:24;;;;;;;6.00;3.40;;;;;;;1.13;87.40;95876.92;104566;1277;97997;-66
2023/01/17 03:28:51;;;;;;;5.70;3.70;;;;;;;1.14;87.51;95880.52;104606;1261;98000;-66
2023/01/17 03:31:20;;;;;;;7.30;3.80;;;;;;;1.15;87.72;95879.95;104497;1274;97973;-67
2023/01/17 03:33:47;;;;;;;8.60;4.80;;;;;;;1.16;87.44;95880.38;104586;1259;98037;-68
2023/01/17 03:36:14;;;;;;;7.10;4.10;;;;;;;1.16;87.60;95883.36;104425;1264;98162;-68
2023/01/17 03:38:41;;;;;;;9.50;4.90;;;;;;;1.14;87.43;95880.20;104657;1264;98169;-66
2023/01/17 03:41:08;;;;;;;8.00;4.50;;;;;;;1.11;87.65;95880.01;104850;1265;99307;-66
2023/01/17 03:43:35;;;;;;;11.20;5.70;;;;;;;1.09;87.48;95877.45;105171;1257;97986;-66
2023/01/17 03:46:05;;;;;;;7.40;3.50;;;;;;;1.05;87.68;95874.98;105240;1254;97920;-66
2023/01/17 03:48:33;;;;;;;12.40;6.90;;;;;;;1.03;87.93;95875.29;105236;1254;107856;-66
2023/01/17 03:51:00;;;;;;;19.30;9.00;;;;;;;1.00;87.82;95876.01;105193;1256;97919;-66
2023/01/17 03:53:27;;;;;;;12.30;6.10;;;;;;;0.99;87.63;95877.67;105189;1257;97905;-66
2023/01/17 03:55:54;;;;;;;12.50;6.50;;;;;;;0.97;87.55;95877.13;105165;1256;99196;-66
2023/01/17 03:58:20;;;;;;;11.50;6.00;;;;;;;0.96;87.48;95877.60;105215;1256;97934;-66
2023/01/17 04:00:47;;;;;;;10.40;5.70;;;;;;;0.94;87.40;95880.55;105196;1257;97931;-66
2023/01/17 04:03:14;;;;;;;9.30;5.30;;;;;;;0.93;87.48;95881.50;105270;1258;99200;-66
2023/01/17 04:05:41;;;;;;;10.90;5.50;;;;;;;0.93;87.70;95879.86;105260;1257;97856;-66
2023/01/17 04:08:08;;;;;;;10.00;5.10;;;;;;;0.93;87.65;95880.55;105222;1254;99080;-66
2023/01/17 04:10:35;;;;;;;10.40;5.70;;;;;;;0.93;87.64;95875.85;105158;1267;98004;-66
2023/01/17 04:13:02;;;;;;;12.30;6.90;;;;;;;0.94;87.58;95878.74;105184;1266;97986;-66
2023/01/17 04:15:29;;;;;;;11.10;5.90;;;;;;;0.94;87.51;95878.84;105195;1257;98836;-66
2023/01/17 04:17:56;;;;;;;11.50;5.30;;;;;;;0.95;87.49;95875.35;105223;1256;97983;-66
2023/01/17 04:20:36;;;;;;;12.60;6.20;;;;;;;0.95;87.33;95880.42;105278;1260;98362;-66
2023/01/17 04:23:04;;;;;;;49.90;17.50;;;;;;;0.92;87.23;95882.23;105267;1257;108598;-66
2023/01/17 04:25:31;;;;;;;49.50;13.10;;;;;;;0.89;87.54;95880.39;105223;1254;99162;-66
2023/01/17 04:28:00;;;;;;;32.10;10.50;;;;;;;0.85;87.46;95886.61;105184;1252;97927;-66
2023/01/17 04:30:28;;;;;;;82.30;18.90;;;;;;;0.81;87.80;95890.59;105305;1254;111821;-66
2023/01/17 04:32:56;;;;;;;15.00;6.10;;;;;;;0.75;87.97;95891.06;105203;1257;98423;-66
2023/01/17 04:35:24;;;;;;;11.80;5.60;;;;;;;0.71;88.32;95892.75;105191;1257;108307;-66
2023/01/17 04:37:51;;;;;;;9.40;5.10;;;;;;;0.70;88.44;95892.05;105304;1256;97857;-66
2023/01/17 04:40:19;;;;;;;15.50;6.90;;;;;;;0.71;88.45;95895.95;105272;1256;98470;-66
2023/01/17 04:42:47;;;;;;;127.50;24.10;;;;;;;0.74;88.27;95902.73;105201;1256;198847;-66
2023/01/17 04:45:14;;;;;;;90.50;21.20;;;;;;;0.80;87.96;95905.27;105290;1257;99209;-66
2023/01/17 04:47:41;;;;;;;98.60;21.30;;;;;;;0.85;87.89;95907.80;105283;1272;108355;-66
2023/01/17 04:50:10;;;;;;;90.40;19.40;;;;;;;0.88;87.72;95908.63;105256;1254;97924;-66
2023/01/17 04:52:37;;;;;;;155.50;31.70;;;;;;;0.92;87.65;95909.70;105156;1257;98406;-66
2023/01/17 04:55:05;;;;;;;158.60;32.30;;;;;;;0.94;87.36;95913.20;105123;1254;97980;-66
2023/01/17 04:57:32;;;;;;;231.80;45.10;;;;;;;0.96;87.26;95910.42;105153;1256;99090;-66
2023/01/17 04:59:59;;;;;;;277.00;52.80;;;;;;;0.95;87.56;95913.78;105216;1257;98261;-72
2023/01/17 05:02:26;;;;;;;267.30;53.70;;;;;;;0.94;87.39;95916.27;105228;1256;98351;-67
2023/01/17 05:04:53;;;;;;;96.90;23.10;;;;;;;0.92;87.51;95921.23;105340;1257;97903;-67
2023/01/17 05:07:20;;;;;;;97.40;23.10;;;;;;;0.90;87.39;95928.10;105205;1256;97902;-67
2023/01/17 05:09:47;;;;;;;90.00;21.10;;;;;;;0.87;87.66;95935.63;105259;1254;97901;-67
2023/01/17 05:12:14;;;;;;;254.80;52.40;;;;;;;0.85;87.46;95936.38;105250;1257;99105;-67
2023/01/17 05:14:41;;;;;;;105.10;25.00;;;;;;;0.82;87.62;95931.47;105319;1258;98601;-67
2023/01/17 05:17:13;;;;;;;87.10;21.00;;;;;;;0.80;87.58;95933.24;105209;1264;112421;-67
2023/01/17 05:19:46;;;;;;;118.20;26.90;;;;;;;0.79;87.52;95932.27;105240;1257;98766;-67
2023/01/17 05:22:14;;;;;;;135.10;31.50;;;;;;;0.80;87.59;95926.05;105214;1269;97870;-67
2023/01/17 05:24:45;;;;;;;212.60;43.10;;;;;;;0.82;87.51;95931.64;105232;1256;97891;-67
2023/01/17 05:27:14;;;;;;;188.10;41.10;;;;;;;0.84;87.77;95937.72;105269;1258;98309;-66
2023/01/17 05:29:40;;;;;;;159.90;34.10;;;;;;;0.86;87.58;95936.13;105347;1254;111237;-67
2023/01/17 05:32:08;;;;;;;109.70;28.60;;;;;;;0.90;87.79;95938.67;105245;1257;98753;-67
2023/01/17 05:34:35;;;;;;;88.50;22.00;;;;;;;0.94;87.81;95932.08;105272;1257;97972;-67
2023/01/17 05:37:02;;;;;;;32.60;10.50;;;;;;;0.98;87.56;95924.33;105215;1256;99232;-67
2023/01/17 05:39:29;;;;;;;56.40;15.20;;;;;;;1.04;87.52;95925.34;105255;1268;97919;-67
2023/01/17 05:41:58;;;;;;;89.80;20.90;;;;;;;1.08;87.26;95929.64;105128;1254;97877;-67
2023/01/17 05:44:26;;;;;;;22.90;8.10;;;;;;;1.06;87.42;95934.73;105242;1257;98050;-67
2023/01/17 05:46:55;;;;;;;16.80;7.70;;;;;;;1.04;87.43;95937.37;105251;1258;108505;-67
2023/01/17 05:49:22;;;;;;;14.30;6.50;;;;;;;1.07;87.62;95947.48;105247;1257;97982;-67
2023/01/17 05:51:50;;;;;;;16.50;7.30;;;;;;;1.07;87.58;95948.20;105307;1257;97834;-67
2023/01/17 05:54:20;;;;;;;156.70;36.80;;;;;;;1.10;87.79;95944.08;105280;1256;113334;-67
2023/01/17 05:56:47;;;;;;;19.70;8.20;;;;;;;1.08;87.71;95936.44;105268;1257;99145;-67
2023/01/17 05:59:15;;;;;;;11.50;6.30;;;;;;;1.03;87.67;95931.40;105240;1264;97994;-67
2023/01/17 06:01:53;;;;;;;20.30;7.90;;;;;;;1.00;87.79;95931.05;105248;1257;98037;-67
2023/01/17 06:04:20;;;;;;;13.40;6.00;;;;;;;1.02;87.84;95931.78;105252;1254;98136;-67
2023/01/17 06:06:47;;;;;;;17.70;7.50;;;;;;;1.04;87.79;95940.06;105262;1257;112197;-67
2023/01/17 06:09:14;;;;;;;10.40;5.00;;;;;;;1.08;87.66;95948.24;105295;1257;98712;-67
2023/01/17 06:11:42;;;;;;;19.70;6.40;;;;;;;1.12;87.68;95949.88;105315;1257;98414;-67
2023/01/17 06:14:09;;;;;;;15.40;6.50;;;;;;;1.17;87.62;95954.33;105221;1256;99303;-67
2023/01/17 06:16:36;;;;;;;24.20;8.00;;;;;;;1.22;87.56;95956.99;105098;1257;98296;-71
2023/01/17 06:19:03;;;;;;;37.70;10.50;;;;;;;1.26;87.46;95955.40;105169;1254;99196;-67
2023/01/17 06:21:30;;;;;;;36.70;11.70;;;;;;;1.30;87.38;95960.89;105191;1256;97902;-70
2023/01/17 06:23:57;;;;;;;34.80;12.20;;;;;;;1.33;87.38;95959.45;105271;1254;97988;-67
2023/01/17 06:26:24;;;;;;;48.00;13.80;;;;;;;1.37;87.25;95962.35;105270;1257;97994;-67
2023/01/17 06:28:51;;;;;;;43.60;12.60;;;;;;;1.38;86.90;95960.83;105237;1257;113355;-67
2023/01/17 06:31:18;;;;;;;115.30;30.40;;;;;;;1.38;87.18;95968.17;105251;1256;99219;-67
2023/01/17 06:33:45;;;;;;;66.80;20.80;;;;;;;1.39;87.05;95968.96;105337;1266;99252;-67
2023/01/17 06:36:13;;;;;;;45.90;13.30;;;;;;;1.37;87.14;95970.52;105266;1257;97916;-67
2023/01/17 06:38:40;;;;;;;41.60;12.70;;;;;;;1.36;86.95;95974.39;105271;1256;99194;-67
2023/01/17 06:41:08;;;;;;;42.50;15.10;;;;;;;1.34;87.18;95972.90;105185;1256;97894;-67
2023/01/17 06:43:35;;;;;;;54.70;16.10;;;;;;;1.32;87.15;95971.08;105311;1257;97989;-67
2023/01/17 06:46:03;;;;;;;53.00;17.40;;;;;;;1.28;87.06;95973.68;105249;1257;98826;-67
2023/01/17 06:48:30;;;;;;;77.50;21.40;;;;;;;1.25;87.30;95978.95;105273;1257;99194;-67
2023/01/17 06:50:57;;;;;;;58.60;19.80;;;;;;;1.24;87.41;95977.81;105284;1256;97955;-67
2023/01/17 06:53:24;;;;;;;86.40;24.40;;;;;;;1.24;87.41;95979.30;105288;1254;98008;-67
2023/01/17 06:55:56;;;;;;;110.90;31.60;;;;;;;1.26;87.58;95982.76;105201;1257;97914;-67
2023/01/17 06:58:23;;;;;;;69.30;21.10;;;;;;;1.28;87.48;95985.08;105227;1257;109391;-67
2023/01/17 07:00:51;;;;;;;39.90;15.00;;;;;;;1.30;87.50;95983.17;105295;1257;97927;-67
2023/01/17 07:03:24;;;;;;;40.90;13.30;;;;;;;1.32;87.25;95986.41;105214;1256;98203;-67
2023/01/17 07:05:51;;;;;;;38.50;13.30;;;;;;;1.34;87.43;95992.11;105275;1254;111332;-66
2023/01/17 07:08:19;;;;;;;46.10;15.20;;;;;;;1.36;87.15;95994.38;105328;1257;97973;-67
2023/01/17 07:10:47;;;;;;;44.40;14.50;;;;;;;1.39;87.14;95990.92;105296;1257;97899;-67
2023/01/17 07:13:15;;;;;;;54.20;17.10;;;;;;;1.41;87.16;95988.58;105123;1267;98315;-67
2023/01/17 07:15:42;;;;;;;59.70;19.90;;;;;;;1.44;87.05;95990.02;105237;1256;99235;-67
2023/01/17 07:18:09;;;;;;;55.10;17.30;;;;;;;1.46;87.27;95992.92;105386;1259;111807;-67
2023/01/17 07:20:37;;;;;;;54.80;18.50;;;;;;;1.47;87.14;95992.92;105277;1256;97899;-67
2023/01/17 07:23:05;;;;;;;68.90;23.40;;;;;;;1.48;87.05;95994.95;105263;1257;97896;-67
2023/01/17 07:25:32;;;;;;;53.90;18.50;;;;;;;1.46;86.98;95997.59;105300;1257;98097;-67
2023/01/17 07:27:59;;;;;;;144.30;43.00;;;;;;;1.44;87.19;96000.42;105304;1256;99084;-67
2023/01/17 07:30:26;;;;;;;61.00;20.10;;;;;;;1.43;87.10;96005.52;105227;1267;97924;-67
2023/01/17 07:32:55;;;;;;;53.40;16.90;;;;;;;1.42;87.28;96004.17;105393;1256;98040;-67
2023/01/17 07:35:25;;;;;;;31.60;11.90;;;;;;;1.41;87.40;96009.15;105311;1256;108846;-67
2023/01/17 07:37:53;;;;;;;48.10;15.30;;;;;;;1.41;87.43;96009.00;105090;1256;98049;-67
2023/01/17 07:40:21;;;;;;;40.70;14.50;;;;;;;1.42;87.42;96013.34;105215;1266;98516;-69
2023/01/17 07:42:48;;;;;;;41.50;14.30;;;;;;;1.45;87.38;96013.71;105169;1256;112390;-68
2023/01/17 07:45:16;;;;;;;51.70;17.10;;;;;;;1.48;87.48;96015.37;105280;1264;99193;-69
2023/01/17 07:47:43;;;;;;;94.90;30.40;;;;;;;1.52;87.29;96017.27;105227;1266;97901;-66
2023/01/17 07:50:12;;;;;;;39.70;15.90;;;;;;;1.57;87.07;96014.59;105245;1256;99306;-66
2023/01/17 07:52:39;;;;;;;41.20;14.30;;;;;;;1.61;87.19;96010.33;105356;1257;98411;-67
2023/01/17 07:55:07;;;;;;;65.70;24.20;;;;;;;1.67;87.09;96014.77;105317;1267;97934;-66
2023/01/17 07:57:34;;;;;;;41.10;15.70;;;;;;;1.72;86.88;96016.23;105302;1254;99282;-67
2023/01/17 08:00:03;;;;;;;30.40;12.40;;;;;;;1.77;86.73;96021.08;105296;1256;97914;-67
2023/01/17 08:02:31;;;;;;;27.90;11.60;;;;;;;1.80;86.67;96022.59;105292;1256;97898;-67
2023/01/17 08:04:58;;;;;;;33.10;14.10;;;;;;;1.84;86.55;96024.77;105260;1256;97901;-67
2023/01/17 08:07:25;;;;;;;31.10;12.40;;;;;;;1.88;86.97;96029.55;105241;1257;99194;-67
2023/01/17 08:09:53;;;;;;;18.10;8.60;;;;;;;1.90;86.81;96029.38;105265;1266;99223;-67
2023/01/17 08:12:20;;;;;;;26.70;11.20;;;;;;;1.89;86.61;96031.80;105190;1256;107520;-67
2023/01/17 08:14:47;;;;;;;20.60;9.80;;;;;;;1.87;86.57;96035.77;105212;1267;98070;-67
2023/01/17 08:17:15;;;;;;;25.10;10.50;;;;;;;1.86;86.50;96035.65;105265;1257;98509;-68
2023/01/17 08:19:43;;;;;;;21.60;10.00;;;;;;;1.84;86.63;96035.90;105273;1266;112216;-68
2023/01/17 08:22:11;;;;;;;69.90;25.80;;;;;;;1.84;86.65;96040.36;105385;1256;99093;-68
2023/01/17 08:24:38;;;;;;;31.30;13.20;;;;;;;1.88;86.75;96050.87;105326;1263;97998;-68
2023/01/17 08:27:05;;;;;;;27.90;11.60;;;;;;;1.93;86.81;96048.45;105155;1258;99191;-68
2023/01/17 08:29:32;;;;;;;23.40;10.70;;;;;;;1.98;86.82;96050.56;105300;1256;98006;-69
2023/01/17 08:31:59;;;;;;;23.40;10.50;;;;;;;2.00;86.55;96052.52;105381;1256;99578;-68
2023/01/17 08:34:26;;;;;;;21.10;10.30;;;;;;;2.06;86.37;96052.95;105315;1256;97905;-68
2023/01/17 08:36:54;;;;;;;43.30;17.30;;;;;;;2.10;86.42;96057.46;105221;1254;98013;-68
2023/01/17 08:39:21;;;;;;;36.10;15.30;;;;;;;2.14;86.28;96056.78;105339;1266;99195;-68
2023/01/17 08:41:48;;;;;;;21.90;10.30;;;;;;;2.19;86.26;96048.71;105376;1254;99664;-68
2023/01/17 08:44:15;;;;;;;25.50;10.90;;;;;;;2.22;86.22;96047.59;105312;1257;97909;-68
2023/01/17 08:46:43;;;;;;;26.00;11.20;;;;;;;2.26;86.17;96048.29;105389;1254;97911;-68
2023/01/17 08:49:11;;;;;;;16.50;8.20;;;;;;;2.27;86.07;96050.29;105389;1254;98820;-68
2023/01/17 08:51:39;;;;;;;17.10;8.70;;;;;;;2.25;85.81;96049.88;105391;1254;97898;-69
2023/01/17 08:54:06;;;;;;;25.90;13.00;;;;;;;2.20;85.82;96053.39;105332;1257;112254;-68
2023/01/17 08:56:34;;;;;;;22.40;10.30;;;;;;;2.16;85.72;96061.25;105351;1257;97892;-68
2023/01/17 08:59:01;;;;;;;59.10;23.30;;;;;;;2.15;86.00;96063.45;105272;1266;108589;-68
2023/01/17 09:01:29;;;;;;;40.10;17.00;;;;;;;2.17;85.85;96066.36;105239;1266;97933;-68
2023/01/17 09:03:56;;;;;;;24.00;12.30;;;;;;;2.18;86.05;96063.02;105201;1257;98374;-69
2023/01/17 09:06:23;;;;;;;36.40;18.00;;;;;;;2.20;86.13;96067.45;105338;1266;99204;-67
2023/01/17 09:08:51;;;;;;;27.20;13.00;;;;;;;2.25;85.94;96067.48;105338;1257;98033;-67
2023/01/17 09:11:18;;;;;;;27.10;12.70;;;;;;;2.29;86.04;96068.96;105248;1266;97914;-67
2023/01/17 09:13:45;;;;;;;29.40;15.00;;;;;;;2.34;86.23;96070.16;105265;1256;99201;-68
2023/01/17 09:16:12;;;;;;;22.40;12.10;;;;;;;2.42;86.15;96076.10;105334;1257;97882;-67
2023/01/17 09:18:39;;;;;;;24.90;12.40;;;;;;;2.47;85.92;96078.34;105320;1258;97997;-67
2023/01/17 09:21:15;;;;;;;23.80;12.20;;;;;;;2.52;85.91;96080.07;105241;1266;97944;-67
2023/01/17 09:23:43;;;;;;;21.10;11.00;;;;;;;2.54;85.69;96080.70;105277;1259;109826;-67
2023/01/17 09:26:31;;;;;;;24.80;11.20;;;;;;;2.57;85.86;96076.61;105269;1265;97888;-67
2023/01/17 09:28:58;;;;;;;16.20;9.20;;;;;;;2.59;85.72;96079.27;105291;1256;97886;-68
2023/01/17 09:31:26;;;;;;;25.40;14.30;;;;;;;2.63;85.79;96079.65;105309;1257;97902;-67
2023/01/17 09:33:55;;;;;;;21.50;10.60;;;;;;;2.73;85.89;96078.96;105272;1264;98366;-68
2023/01/17 09:36:27;;;;;;;19.80;9.90;;;;;;;2.81;85.60;96083.22;105281;1265;108361;-67
2023/01/17 09:38:56;;;;;;;19.00;9.10;;;;;;;2.95;85.79;96084.28;105260;1254;97983;-67
2023/01/17 09:41:28;;;;;;;15.00;8.10;;;;;;;3.18;85.80;96086.98;105303;1264;98330;-67
2023/01/17 09:44:05;;;;;;;16.40;9.00;;;;;;;3.43;84.83;96089.09;105255;1257;112306;-67
2023/01/17 09:46:39;;;;;;;16.20;8.40;;;;;;;3.73;83.92;96086.27;105310;1267;99243;-67
2023/01/17 09:49:11;;;;;;;9.20;5.30;;;;;;;4.01;83.39;96090.18;105274;1257;108789;-67
2023/01/17 09:51:41;;;;;;;17.20;7.40;;;;;;;4.23;82.00;96083.72;105273;1257;97898;-67
2023/01/17 09:54:22;;;;;;;21.30;11.10;;;;;;;4.42;81.56;96088.73;105305;1266;97912;-68
2023/01/17 09:57:16;;;;;;;19.60;9.40;;;;;;;4.60;80.81;96086.86;105143;1257;111728;-67
2023/01/17 10:00:02;;;;;;;17.10;8.90;;;;;;;4.77;80.44;96085.06;105242;1266;99011;-68
2023/01/17 10:03:09;;;;;;;21.60;9.60;;;;;;;4.93;79.88;96084.23;105054;1257;108875;-67
2023/01/17 10:05:56;;;;;;;18.60;10.00;;;;;;;5.29;78.85;96084.84;105221;1266;97938;-67
2023/01/17 10:08:43;;;;;;;13.70;7.70;;;;;;;5.87;78.29;96080.89;105184;1256;98981;-67
2023/01/17 10:11:28;;;;;;;15.30;8.10;;;;;;;6.47;76.85;96075.30;105270;1267;112163;-67
2023/01/17 10:14:01;;;;;;;10.60;5.20;;;;;;;7.09;73.32;96085.68;105243;1266;99151;-67
2023/01/17 10:16:40;;;;;;;11.80;7.10;;;;;;;7.50;71.75;96088.82;105162;1266;107591;-67
2023/01/17 10:19:29;;;;;;;12.30;6.60;;;;;;;7.99;71.91;96091.11;105205;1267;99201;-68
2023/01/17 10:22:04;;;;;;;12.70;6.90;;;;;;;8.42;70.27;96091.81;105135;1266;98072;-68
2023/01/17 10:25:02;;;;;;;14.20;8.10;;;;;;;8.73;68.57;96091.59;105116;1257;111891;-68
2023/01/17 10:27:57;;;;;;;16.60;9.30;;;;;;;9.06;68.21;96085.88;105315;1257;98237;-70
2023/01/17 10:30:42;;;;;;;12.90;7.90;;;;;;;9.38;65.53;96083.98;105397;1266;107380;-68
2023/01/17 10:33:20;;;;;;;15.20;7.80;;;;;;;9.65;65.85;96089.09;105341;1257;99109;-68
2023/01/17 10:35:52;;;;;;;12.10;7.30;;;;;;;9.85;62.81;96088.78;105381;1269;98196;-68
2023/01/17 10:38:31;;;;;;;13.30;7.50;;;;;;;10.07;63.59;96088.71;105364;1257;112014;-68
2023/01/17 10:41:04;;;;;;;10.30;6.30;;;;;;;10.24;62.48;96089.52;105375;1254;99200;-68
2023/01/17 10:43:44;;;;;;;12.40;7.70;;;;;;;10.35;59.83;96096.98;105356;1254;107863;-68
2023/01/17 10:46:19;;;;;;;8.20;5.90;;;;;;;10.46;60.64;96095.30;105394;1256;99216;-68
2023/01/17 10:48:49;;;;;;;8.50;6.10;;;;;;;10.55;59.44;96099.16;105403;1266;98793;-68
2023/01/17 10:51:48;;;;;;;9.70;5.50;;;;;;;10.60;58.46;96101.09;105384;1266;112304;-68
2023/01/17 10:54:44;;;;;;;13.10;8.10;;;;;;;10.57;58.50;96103.33;105364;1259;99321;-68
2023/01/17 10:57:24;;;;;;;13.70;8.10;;;;;;;10.82;60.18;96105.80;105355;1267;108287;-68
2023/01/17 10:59:52;;;;;;;9.30;6.30;;;;;;;11.10;57.54;96102.66;105349;1266;97802;-68
2023/01/17 11:02:28;;;;;;;9.10;5.70;;;;;;;11.20;57.17;96101.56;105426;1266;98088;-68
2023/01/17 11:05:02;;;;;;;8.80;5.70;;;;;;;11.14;54.52;96103.09;105415;1267;111997;-68
2023/01/17 11:07:30;;;;;;;12.00;7.10;;;;;;;11.12;55.36;96105.65;105386;1267;99147;-68
2023/01/17 11:09:58;;;;;;;8.60;6.20;;;;;;;11.33;55.91;96103.29;105338;1266;107251;-68
2023/01/17 11:12:32;;;;;;;15.20;7.80;;;;;;;11.58;55.54;96102.41;105252;1265;97933;-67
2023/01/17 11:15:26;;;;;;;11.20;7.90;;;;;;;11.87;54.66;96100.52;105294;1262;99102;-67
2023/01/17 11:18:13;;;;;;;12.20;7.30;;;;;;;12.01;54.24;96101.98;105237;1267;112281;-67
2023/01/17 11:20:43;;;;;;;7.20;4.70;;;;;;;12.19;53.71;96103.95;105171;1267;99340;-68
2023/01/17 11:23:25;;;;;;;9.60;6.40;;;;;;;12.34;53.64;96103.36;105199;1266;107651;-67
2023/01/17 11:26:01;;;;;;;10.70;6.70;;;;;;;12.65;52.96;96099.02;105220;1257;99105;-67
2023/01/17 11:28:31;;;;;;;7.70;4.90;;;;;;;12.76;51.97;96100.77;105256;1266;99198;-67
2023/01/17 11:31:07;;;;;;;5.80;4.30;;;;;;;12.85;50.83;96101.39;105192;1257;111234;-67
2023/01/17 11:33:43;;;;;;;7.90;5.80;;;;;;;12.76;48.54;96100.92;105235;1260;99663;-67
2023/01/17 11:36:30;;;;;;;9.10;6.30;;;;;;;12.84;50.19;96094.88;105256;1267;108545;-67
2023/01/17 11:39:03;;;;;;;9.80;6.40;;;;;;;13.08;49.97;96088.20;105174;1256;99102;-67
2023/01/17 11:41:40;;;;;;;5.30;4.10;;;;;;;13.22;49.25;96083.55;105192;1267;98225;-67
2023/01/17 11:44:20;;;;;;;12.80;6.30;;;;;;;13.39;48.92;96081.95;105235;1267;110754;-70
2023/01/17 11:47:06;;;;;;;9.20;7.00;;;;;;;13.40;48.20;96083.76;105126;1257;99302;-70
2023/01/17 11:49:33;;;;;;;11.00;6.60;;;;;;;13.42;47.22;96071.65;105349;1264;107598;-67
2023/01/17 11:52:06;;;;;;;7.20;5.40;;;;;;;13.38;46.97;96065.21;105261;1267;98347;-67
2023/01/17 11:54:39;;;;;;;6.60;4.90;;;;;;;13.37;46.07;96066.32;105298;1256;97896;-66
2023/01/17 11:57:19;;;;;;;8.00;5.70;;;;;;;13.29;45.60;96069.08;105315;1266;111207;-66
2023/01/17 11:59:47;;;;;;;;;;;;;;;13.26;45.52;96063.20;105364;1268;99354;-67
2023/01/17 12:03:05;;;;;;;8.80;5.90;;;;;;;13.11;45.93;96059.52;105301;1258;109119;-67
2023/01/17 12:06:07;;;;;;;14.00;8.30;;;;;;;13.21;46.13;96056.99;104992;1274;97889;-67
2023/01/17 12:08:38;;;;;;;13.90;7.70;;;;;;;13.25;44.67;96057.06;105272;1257;99118;-66
2023/01/17 12:11:21;;;;;;;9.60;6.10;;;;;;;13.23;44.27;96057.14;105306;1257;112204;-66
2023/01/17 12:14:21;;;;;;;12.60;8.60;;;;;;;13.12;43.90;96051.90;105300;1267;99380;-67
2023/01/17 12:16:48;;;;;;;11.60;7.20;;;;;;;13.23;44.49;96048.19;105294;1255;108556;-67
2023/01/17 12:19:53;;;;;;;12.90;6.90;;;;;;;13.48;44.90;96052.70;105269;1267;99197;-67
2023/01/17 12:22:46;;;;;;;13.50;8.00;;;;;;;13.72;43.55;96056.49;105284;1254;97861;-67
2023/01/17 12:25:27;;;;;;;14.50;7.60;;;;;;;13.90;43.80;96053.35;104949;1265;111862;-67
2023/01/17 12:28:33;;;;;;;11.20;7.20;;;;;;;14.16;44.27;96051.88;105254;1257;99195;-66
2023/01/17 12:31:18;;;;;;;9.20;4.80;;;;;;;14.40;41.43;96057.65;105118;1266;108656;-66
2023/01/17 12:33:54;;;;;;;13.70;7.80;;;;;;;14.15;41.76;96067.15;105203;1268;97912;-66
2023/01/17 12:36:29;;;;;;;9.10;5.80;;;;;;;14.12;41.92;96066.46;105185;1258;99096;-66
2023/01/17 12:39:02;;;;;;;11.90;7.20;;;;;;;14.09;41.69;96066.23;105286;1266;112839;-66
2023/01/17 12:41:38;;;;;;;6.60;5.00;;;;;;;14.08;41.45;96061.05;105248;1266;98421;-66
2023/01/17 12:44:10;;;;;;;6.40;4.70;;;;;;;13.98;40.61;96054.34;105261;1258;108258;-66
2023/01/17 12:46:47;;;;;;;6.50;4.90;;;;;;;13.74;40.65;96052.40;105151;1255;98274;-66
2023/01/17 12:49:33;;;;;;;8.60;5.30;;;;;;;13.74;41.36;96053.42;105212;1263;97971;-66
2023/01/17 12:52:32;;;;;;;8.70;5.80;;;;;;;13.71;41.65;96053.67;105203;1257;112472;-66
2023/01/17 12:55:10;;;;;;;8.80;5.70;;;;;;;13.63;42.06;96052.91;105316;1258;100053;-66
2023/01/17 12:57:44;;;;;;;5.10;3.80;;;;;;;13.74;41.69;96055.45;105061;1264;108580;-65
2023/01/17 13:00:24;;;;;;;4.80;3.60;;;;;;;13.77;40.93;96057.58;105110;1257;97906;-65
2023/01/17 13:03:26;;;;;;;7.30;5.10;;;;;;;13.84;41.00;96041.36;105165;1266;97881;-66